createdAt,value
2018-08-28T00:04:41.689Z,6.43
2018-08-28T00:09:45.733Z,7.23
2018-08-28T00:14:49.354Z,6.20
2018-08-28T00:19:53.577Z,6.30
2018-08-28T00:24:57.555Z,5.53
2018-08-28T00:30:01.238Z,6.27
2018-08-28T00:35:04.731Z,6.97
2018-08-28T00:40:08.459Z,6.47
2018-08-28T00:45:12.588Z,5.97
2018-08-28T00:50:16.540Z,5.20
2018-08-28T00:55:20.615Z,5.63
2018-08-28T01:00:24.157Z,5.23
2018-08-28T01:05:28.780Z,5.97
2018-08-28T01:10:32.749Z,5.67
2018-08-28T01:15:36.841Z,6.00
2018-08-28T01:20:40.209Z,5.90
2018-08-28T01:25:44.678Z,7.20
2018-08-28T01:30:48.056Z,6.17
2018-08-28T01:35:51.864Z,6.70
2018-08-28T01:40:56.305Z,5.60
2018-08-28T01:46:00.069Z,5.93
2018-08-28T01:51:03.541Z,7.57
2018-08-28T01:56:07.625Z,5.60
2018-08-28T02:01:11.439Z,6.13
2018-08-28T02:06:15.524Z,5.60
2018-08-28T02:11:19.022Z,6.30
2018-08-28T02:16:22.723Z,6.17
2018-08-28T02:21:26.984Z,6.77
2018-08-28T02:26:30.694Z,6.97
2018-08-28T02:31:35.704Z,5.40
2018-08-28T02:36:39.360Z,6.90
2018-08-28T02:41:42.995Z,6.00
2018-08-28T02:46:46.391Z,6.10
2018-08-28T02:51:50.096Z,6.27
2018-08-28T02:56:54.445Z,6.70
2018-08-28T03:01:58.918Z,6.40
2018-08-28T03:07:03.183Z,7.17
2018-08-28T03:12:07.545Z,6.67
2018-08-28T03:17:11.415Z,6.73
2018-08-28T03:22:16.325Z,7.70
2018-08-28T03:27:20.340Z,7.20
2018-08-28T03:32:24.749Z,8.13
2018-08-28T03:37:28.509Z,7.30
2018-08-28T03:42:32.769Z,7.40
2018-08-28T03:47:38.041Z,7.03
2018-08-28T03:52:42.214Z,7.47
2018-08-28T03:57:46.406Z,7.43
2018-08-28T04:02:50.207Z,7.40
2018-08-28T04:07:53.541Z,6.27
2018-08-28T04:12:58.682Z,8.20
2018-08-28T04:18:03.084Z,6.87
2018-08-28T04:23:07.350Z,7.27
2018-08-28T04:28:11.466Z,7.03
2018-08-28T04:33:15.121Z,7.17
2018-08-28T04:38:18.445Z,7.97
2018-08-28T04:43:22.389Z,6.53
2018-08-28T04:48:28.067Z,7.40
2018-08-28T04:53:32.680Z,6.97
2018-08-28T04:58:41.772Z,6.20
2018-08-28T05:03:52.418Z,5.20
2018-08-28T05:08:56.888Z,6.80
2018-08-28T05:14:00.884Z,7.13
2018-08-28T05:19:05.368Z,6.47
2018-08-28T05:24:14.666Z,6.57
2018-08-28T05:29:20.696Z,6.23
2018-08-28T05:34:24.216Z,5.87
2018-08-28T05:39:28.419Z,5.97
2018-08-28T05:44:33.068Z,5.90
2018-08-28T05:49:37.324Z,6.03
2018-08-28T05:54:42.563Z,6.37
2018-08-28T05:59:47.361Z,5.00
2018-08-28T06:04:52.173Z,6.53
2018-08-28T06:09:57.056Z,5.03
2018-08-28T06:15:01.350Z,4.50
2018-08-28T06:20:05.040Z,4.87
2018-08-28T06:25:09.681Z,6.87
2018-08-28T06:30:14.224Z,4.80
2018-08-28T06:35:18.379Z,5.40
2018-08-28T06:40:22.276Z,5.53
2018-08-28T06:45:27.489Z,6.37
2018-08-28T06:50:31.917Z,3.80
2018-08-28T06:55:35.477Z,4.43
2018-08-28T07:00:39.661Z,6.20
2018-08-28T07:05:44.235Z,5.20
2018-08-28T07:10:49.149Z,4.97
2018-08-28T07:15:54.985Z,4.40
2018-08-28T07:20:59.561Z,5.37
2018-08-28T07:26:04.027Z,4.53
2018-08-28T07:31:09.038Z,4.03
2018-08-28T07:36:13.557Z,4.90
2018-08-28T07:41:19.457Z,3.60
2018-08-28T07:46:23.597Z,4.80
2018-08-28T07:51:27.869Z,4.17
2018-08-28T07:56:34.956Z,4.37
2018-08-28T08:01:40.435Z,5.17
2018-08-28T08:06:44.185Z,4.20
2018-08-28T08:11:49.002Z,4.33
2018-08-28T08:16:53.851Z,4.63
2018-08-28T08:21:59.886Z,3.93
2018-08-28T08:27:04.544Z,4.10
2018-08-28T08:32:09.337Z,3.70
2018-08-28T08:37:14.216Z,4.83
2018-08-28T08:42:18.320Z,3.13
2018-08-28T08:47:22.809Z,3.60
2018-08-28T08:52:31.110Z,3.17
2018-08-28T08:57:35.205Z,3.00
2018-08-28T09:02:38.992Z,3.13
2018-08-28T09:07:43.008Z,3.17
2018-08-28T09:12:48.604Z,3.53
2018-08-28T09:17:54.316Z,3.33
2018-08-28T09:22:59.073Z,3.10
2018-08-28T09:28:03.748Z,2.80
2018-08-28T09:33:07.838Z,2.90
2018-08-28T09:38:12.368Z,2.73
2018-08-28T09:43:18.131Z,2.97
2018-08-28T09:48:23.269Z,2.63
2018-08-28T09:53:29.299Z,2.43
2018-08-28T09:58:38.097Z,3.03
2018-08-28T10:03:42.462Z,2.40
2018-08-28T10:08:46.891Z,3.07
2018-08-28T10:13:56.809Z,2.90
2018-08-28T10:19:02.845Z,2.50
2018-08-28T10:24:07.806Z,3.00
2018-08-28T10:29:12.603Z,3.10
2018-08-28T10:34:16.862Z,2.83
2018-08-28T10:39:27.442Z,3.10
2018-08-28T10:44:33.790Z,2.90
2018-08-28T10:49:37.828Z,3.97
2018-08-28T10:54:44.870Z,3.40
2018-08-28T10:59:51.600Z,3.30
2018-08-28T11:04:56.077Z,3.53
2018-08-28T11:10:01.836Z,3.20
2018-08-28T11:15:05.837Z,3.07
2018-08-28T11:20:13.024Z,2.77
2018-08-28T11:25:17.978Z,2.67
2018-08-28T11:30:25.622Z,3.10
2018-08-28T11:35:33.972Z,2.40
2018-08-28T11:40:37.778Z,3.10
2018-08-28T11:45:42.328Z,2.73
2018-08-28T11:50:49.600Z,2.63
2018-08-28T11:56:00.688Z,3.10
2018-08-28T12:01:05.016Z,2.57
2018-08-28T12:06:10.375Z,4.20
2018-08-28T12:11:16.845Z,3.70
2018-08-28T12:16:22.041Z,3.30
2018-08-28T12:21:28.005Z,3.50
2018-08-28T12:26:33.139Z,3.80
2018-08-28T12:31:40.374Z,3.80
2018-08-28T12:36:50.230Z,3.90
2018-08-28T12:41:55.207Z,3.80
2018-08-28T12:47:00.335Z,3.90
2018-08-28T12:52:09.896Z,4.03
2018-08-28T12:57:12.954Z,4.17
2018-08-28T13:02:17.173Z,4.73
2018-08-28T13:07:21.744Z,3.80
2018-08-28T13:12:26.588Z,3.90
2018-08-28T13:17:29.628Z,4.07
2018-08-28T13:22:32.657Z,3.70
2018-08-28T13:27:35.674Z,4.00
2018-08-28T13:32:38.608Z,4.60
2018-08-28T13:37:42.037Z,4.00
2018-08-28T13:42:44.973Z,3.20
2018-08-28T13:47:48.034Z,3.47
2018-08-28T13:52:51.150Z,3.20
2018-08-28T13:57:54.151Z,4.07
2018-08-28T14:02:57.205Z,3.60
2018-08-28T14:08:00.575Z,3.10
2018-08-28T14:13:03.625Z,2.80
2018-08-28T14:18:06.776Z,2.53
2018-08-28T14:23:10.139Z,3.07
2018-08-28T14:28:13.119Z,2.27
2018-08-28T14:33:16.124Z,2.17
2018-08-28T14:38:20.031Z,2.53
2018-08-28T14:43:23.690Z,2.40
2018-08-28T14:48:28.953Z,2.77
2018-08-28T14:53:35.102Z,2.67
2018-08-28T14:58:41.553Z,2.47
2018-08-28T15:03:49.696Z,2.93
2018-08-28T15:08:58.270Z,2.70
2018-08-28T15:14:06.983Z,2.03
2018-08-28T15:19:18.437Z,2.17
2018-08-28T15:24:24.713Z,2.47
2018-08-28T15:29:27.766Z,3.30
2018-08-28T15:34:30.753Z,2.43
2018-08-28T15:39:34.717Z,2.90
2018-08-28T15:44:41.915Z,2.37
2018-08-28T15:49:45.772Z,2.30
2018-08-28T15:54:48.779Z,2.97
2018-08-28T15:59:51.756Z,2.70
2018-08-28T16:04:54.857Z,2.83
2018-08-28T16:09:58.543Z,3.17
2018-08-28T16:15:02.278Z,2.27
2018-08-28T16:20:05.559Z,2.10
2018-08-28T16:25:08.611Z,3.00
2018-08-28T16:30:11.762Z,2.40
2018-08-28T16:35:14.812Z,2.17
2018-08-28T16:40:18.160Z,2.40
2018-08-28T16:45:21.355Z,1.90
2018-08-28T16:50:25.089Z,2.40
2018-08-28T16:55:28.183Z,2.77
2018-08-28T17:00:31.187Z,1.90
2018-08-28T17:05:35.552Z,1.80
2018-08-28T17:10:38.965Z,2.23
2018-08-28T17:15:41.959Z,2.27
2018-08-28T17:20:45.048Z,2.00
2018-08-28T17:26:51.940Z,5.60
2018-08-28T17:31:55.501Z,2.00
2018-08-28T17:36:58.663Z,2.33
2018-08-28T17:42:02.074Z,2.20
2018-08-28T17:47:05.352Z,3.03
2018-08-28T17:52:08.375Z,2.43
2018-08-28T17:57:12.509Z,1.53
2018-08-28T18:02:15.829Z,2.90
2018-08-28T18:07:18.931Z,2.40
2018-08-28T18:12:22.392Z,3.30
2018-08-28T18:17:25.373Z,2.93
2018-08-28T18:22:28.476Z,21.67
2018-08-28T18:27:31.775Z,7.70
2018-08-28T18:32:35.111Z,9.33
2018-08-28T18:37:38.191Z,16.97
2018-08-28T18:42:41.505Z,5.43
2018-08-28T18:47:44.743Z,1.97
2018-08-28T18:52:47.871Z,1.70
2018-08-28T18:57:51.363Z,2.50
2018-08-28T19:02:54.770Z,1.77
2018-08-28T19:07:58.946Z,2.47
2018-08-28T19:13:02.805Z,2.33
2018-08-28T19:18:06.620Z,2.30
2018-08-28T19:23:09.805Z,2.80
2018-08-28T19:28:13.104Z,2.20
2018-08-28T19:33:16.358Z,2.37
2018-08-28T19:38:19.848Z,3.23
2018-08-28T19:43:23.563Z,2.47
2018-08-28T19:48:26.600Z,2.07
2018-08-28T19:53:30.323Z,2.10
2018-08-28T19:58:33.387Z,2.13
2018-08-28T20:03:36.429Z,2.63
2018-08-28T20:08:39.976Z,2.73
2018-08-28T20:13:43.475Z,2.17
2018-08-28T20:18:46.546Z,2.60
2018-08-28T20:23:51.189Z,2.97
2018-08-28T20:28:54.736Z,2.60
2018-08-28T20:33:57.702Z,2.97
2018-08-28T20:39:01.337Z,2.83
2018-08-28T20:44:04.590Z,2.90
2018-08-28T20:49:22.560Z,2.20
2018-08-28T20:54:25.638Z,2.13
2018-08-28T20:59:28.629Z,4.03
2018-08-28T21:04:31.601Z,2.67
2018-08-28T21:09:34.841Z,2.63
2018-08-28T21:14:38.901Z,2.10
2018-08-28T21:19:44.469Z,2.17
2018-08-28T21:24:47.611Z,2.63
2018-08-28T21:29:51.661Z,1.77
2018-08-28T21:34:54.655Z,2.90
2018-08-28T21:39:57.782Z,2.60
2018-08-28T21:45:01.503Z,3.23
2018-08-28T21:50:04.833Z,3.10
2018-08-28T21:55:08.642Z,2.40
2018-08-28T22:00:12.591Z,2.57
2018-08-28T22:05:15.749Z,2.50
2018-08-28T22:10:18.945Z,2.33
2018-08-28T22:15:23.194Z,1.90
2018-08-28T22:20:26.488Z,2.13
2018-08-28T22:25:29.447Z,2.00
2018-08-28T22:30:33.175Z,2.53
2018-08-28T22:35:36.342Z,2.47
2018-08-28T22:40:40.134Z,2.60
2018-08-28T22:45:44.571Z,2.73
2018-08-28T22:50:48.230Z,2.80
2018-08-28T22:55:51.340Z,2.50
2018-08-28T23:00:54.825Z,2.50
2018-08-28T23:05:59.066Z,2.47
2018-08-28T23:11:03.082Z,2.67
2018-08-28T23:16:06.668Z,2.40
2018-08-28T23:21:09.883Z,2.63
2018-08-28T23:26:13.212Z,2.27
2018-08-28T23:31:16.673Z,2.40
2018-08-28T23:36:20.695Z,2.60
2018-08-28T23:41:24.049Z,3.07
2018-08-28T23:46:27.759Z,2.23
2018-08-28T23:51:31.283Z,3.07
2018-08-28T23:56:34.826Z,3.10
